createdAt,value
2017-11-13T00:02:27.484Z,22.30
2017-11-13T00:04:55.115Z,23.93
2017-11-13T00:07:22.924Z,22.33
2017-11-13T00:09:50.623Z,21.40
2017-11-13T00:12:18.645Z,23.70
2017-11-13T00:14:46.471Z,23.47
2017-11-13T00:17:14.219Z,20.50
2017-11-13T00:19:41.770Z,23.50
2017-11-13T00:22:09.492Z,22.47
2017-11-13T00:24:37.096Z,25.40
2017-11-13T00:27:04.681Z,24.30
2017-11-13T00:29:32.284Z,22.27
2017-11-13T00:31:59.907Z,23.50
2017-11-13T00:34:27.574Z,26.20
2017-11-13T00:36:55.192Z,23.93
2017-11-13T00:39:23.017Z,25.03
2017-11-13T00:41:50.639Z,22.97
2017-11-13T00:44:18.275Z,23.97
2017-11-13T00:46:46.474Z,25.03
2017-11-13T00:49:14.092Z,22.63
2017-11-13T00:51:41.699Z,22.37
2017-11-13T00:54:09.355Z,24.87
2017-11-13T00:56:36.946Z,23.37
2017-11-13T00:59:04.612Z,22.10
2017-11-13T01:01:32.251Z,23.13
2017-11-13T01:04:00.041Z,24.23
2017-11-13T01:06:27.806Z,24.73
2017-11-13T01:08:55.474Z,25.43
2017-11-13T01:11:24.752Z,24.40
2017-11-13T01:13:52.682Z,24.70
2017-11-13T01:16:20.419Z,26.50
2017-11-13T01:18:48.362Z,26.90
2017-11-13T01:21:16.029Z,26.10
2017-11-13T01:23:43.749Z,25.03
2017-11-13T01:26:11.504Z,26.07
2017-11-13T01:28:39.153Z,25.97
2017-11-13T01:31:06.765Z,25.57
2017-11-13T01:33:34.390Z,25.37
2017-11-13T01:36:02.104Z,24.27
2017-11-13T01:38:29.830Z,21.30
2017-11-13T01:40:57.601Z,21.47
2017-11-13T01:43:26.501Z,21.83
2017-11-13T01:45:54.117Z,22.40
2017-11-13T01:48:21.662Z,22.67
2017-11-13T01:50:49.346Z,23.27
2017-11-13T01:53:17.953Z,23.10
2017-11-13T01:55:45.579Z,22.83
2017-11-13T01:58:13.241Z,22.83
2017-11-13T02:00:41.324Z,23.40
2017-11-13T02:03:09.056Z,22.70
2017-11-13T02:05:36.786Z,22.67
2017-11-13T02:08:04.497Z,22.47
2017-11-13T02:10:32.096Z,23.23
2017-11-13T02:12:59.732Z,22.40
2017-11-13T02:15:27.364Z,21.60
2017-11-13T02:17:55.043Z,21.50
2017-11-13T02:20:22.720Z,22.07
2017-11-13T02:22:50.424Z,22.13
2017-11-13T02:25:18.067Z,20.43
2017-11-13T02:27:45.806Z,19.37
2017-11-13T02:30:13.559Z,19.97
2017-11-13T02:32:41.205Z,21.00
2017-11-13T02:35:08.821Z,22.17
2017-11-13T02:37:36.520Z,19.97
2017-11-13T02:40:04.112Z,22.30
2017-11-13T02:42:31.728Z,21.67
2017-11-13T02:44:59.606Z,21.80
2017-11-13T02:47:27.276Z,21.80
2017-11-13T02:49:54.862Z,21.07
2017-11-13T02:52:23.161Z,22.40
2017-11-13T02:54:50.821Z,21.40
2017-11-13T02:57:19.268Z,20.80
2017-11-13T02:59:46.876Z,21.30
2017-11-13T03:02:14.504Z,20.73
2017-11-13T03:04:42.114Z,21.40
2017-11-13T03:07:09.885Z,22.20
2017-11-13T03:09:37.521Z,21.20
2017-11-13T03:12:05.325Z,22.40
2017-11-13T03:14:32.874Z,22.80
2017-11-13T03:17:00.572Z,23.20
2017-11-13T03:19:28.118Z,22.67
2017-11-13T03:21:55.885Z,20.00
2017-11-13T03:24:23.483Z,20.03
2017-11-13T03:26:51.098Z,21.30
2017-11-13T03:29:18.727Z,19.87
2017-11-13T03:31:46.965Z,23.30
2017-11-13T03:34:14.734Z,23.80
2017-11-13T03:36:42.388Z,22.13
2017-11-13T03:39:10.016Z,22.57
2017-11-13T03:41:38.397Z,23.30
2017-11-13T03:44:06.183Z,22.70
2017-11-13T03:46:33.813Z,21.70
2017-11-13T03:49:01.353Z,22.77
2017-11-13T03:51:28.924Z,20.43
2017-11-13T03:53:56.541Z,22.37
2017-11-13T03:56:24.105Z,21.20
2017-11-13T03:58:51.660Z,20.87
2017-11-13T04:01:19.241Z,20.00
2017-11-13T04:03:47.034Z,23.63
2017-11-13T04:06:14.732Z,21.73
2017-11-13T04:08:42.392Z,22.50
2017-11-13T04:11:10.021Z,22.20
2017-11-13T04:13:37.855Z,21.53
2017-11-13T04:16:05.478Z,21.57
2017-11-13T04:18:33.092Z,23.53
2017-11-13T04:21:01.654Z,22.37
2017-11-13T04:23:29.630Z,22.90
2017-11-13T04:25:57.978Z,22.27
2017-11-13T04:28:25.512Z,20.90
2017-11-13T04:30:53.153Z,22.40
2017-11-13T04:33:20.939Z,21.97
2017-11-13T04:35:48.524Z,21.60
2017-11-13T04:38:16.117Z,21.17
2017-11-13T04:40:43.681Z,20.70
2017-11-13T04:43:11.439Z,21.37
2017-11-13T04:45:39.106Z,21.53
2017-11-13T04:48:06.744Z,21.90
2017-11-13T04:50:34.380Z,21.00
2017-11-13T04:53:02.006Z,21.53
2017-11-13T04:55:31.361Z,20.67
2017-11-13T04:57:58.992Z,21.10
2017-11-13T05:00:26.624Z,21.10
2017-11-13T05:02:54.261Z,20.30
2017-11-13T05:05:22.676Z,19.30
2017-11-13T05:07:50.319Z,19.00
2017-11-13T05:10:17.928Z,21.80
2017-11-13T05:12:45.524Z,19.53
2017-11-13T05:15:13.166Z,20.47
2017-11-13T05:17:40.935Z,20.57
2017-11-13T05:20:08.566Z,21.03
2017-11-13T05:22:36.235Z,22.43
2017-11-13T05:25:03.867Z,21.73
2017-11-13T05:27:32.203Z,21.90
2017-11-13T05:29:59.904Z,22.00
2017-11-13T05:32:27.552Z,21.90
2017-11-13T05:34:55.507Z,23.37
2017-11-13T05:37:23.117Z,21.90
2017-11-13T05:39:50.872Z,22.80
2017-11-13T05:42:18.429Z,24.47
2017-11-13T05:44:46.025Z,25.43
2017-11-13T05:47:13.669Z,23.20
2017-11-13T05:49:41.257Z,25.60
2017-11-13T05:52:09.138Z,26.10
2017-11-13T05:54:36.744Z,28.67
2017-11-13T05:57:04.355Z,28.67
2017-11-13T05:59:32.145Z,27.90
2017-11-13T06:01:59.759Z,28.23
2017-11-13T06:04:27.544Z,27.40
2017-11-13T06:06:55.143Z,28.57
2017-11-13T06:09:22.721Z,27.60
2017-11-13T06:11:50.269Z,29.60
2017-11-13T06:14:18.204Z,26.17
2017-11-13T06:16:46.048Z,28.07
2017-11-13T06:19:13.662Z,29.47
2017-11-13T06:21:41.291Z,30.33
2017-11-13T06:24:08.987Z,31.17
2017-11-13T06:26:36.612Z,31.33
2017-11-13T06:29:04.163Z,33.47
2017-11-13T06:31:31.748Z,31.97
2017-11-13T06:33:59.288Z,31.17
2017-11-13T06:36:27.037Z,31.80
2017-11-13T06:38:54.697Z,27.93
2017-11-13T06:41:22.232Z,27.63
2017-11-13T06:43:49.825Z,27.70
2017-11-13T06:46:17.433Z,25.73
2017-11-13T06:48:45.084Z,28.53
2017-11-13T06:51:12.943Z,20.93
2017-11-13T06:53:40.546Z,28.47
2017-11-13T06:56:08.091Z,24.30
2017-11-13T06:58:35.663Z,25.13
2017-11-13T07:01:03.235Z,24.20
2017-11-13T07:03:31.509Z,20.50
2017-11-13T07:05:59.689Z,19.07
2017-11-13T07:08:27.408Z,19.60
2017-11-13T07:10:55.004Z,15.50
2017-11-13T07:13:22.662Z,15.80
2017-11-13T07:15:52.120Z,15.60
2017-11-13T07:18:20.247Z,16.50
2017-11-13T07:20:48.789Z,16.73
2017-11-13T07:23:16.461Z,18.77
2017-11-13T07:25:44.378Z,15.63
2017-11-13T07:28:11.940Z,15.43
2017-11-13T07:30:39.587Z,16.83
2017-11-13T07:33:07.371Z,15.03
2017-11-13T07:35:34.908Z,16.97
2017-11-13T07:38:07.911Z,15.00
2017-11-13T07:40:38.387Z,18.17
2017-11-13T07:43:07.903Z,21.70
2017-11-13T07:45:38.839Z,20.90
2017-11-13T07:48:18.608Z,17.90
2017-11-13T07:50:46.236Z,18.93
2017-11-13T07:53:13.823Z,18.37
2017-11-13T07:55:41.400Z,17.10
2017-11-13T07:58:08.939Z,20.17
2017-11-13T08:00:36.528Z,18.17
2017-11-13T08:03:04.066Z,18.50
2017-11-13T08:05:31.709Z,18.23
2017-11-13T08:07:59.353Z,21.83
2017-11-13T08:10:27.479Z,22.10
2017-11-13T08:12:55.887Z,17.97
2017-11-13T08:15:23.497Z,18.77
2017-11-13T08:17:51.256Z,17.70
2017-11-13T08:20:18.818Z,19.90
2017-11-13T08:22:46.500Z,18.03
2017-11-13T08:25:14.040Z,17.57
2017-11-13T08:27:41.866Z,17.20
2017-11-13T08:30:10.086Z,17.37
2017-11-13T08:32:38.437Z,15.67
2017-11-13T08:35:07.676Z,14.20
2017-11-13T08:37:35.358Z,14.93
2017-11-13T08:40:03.211Z,14.70
2017-11-13T08:42:31.718Z,15.30
2017-11-13T08:45:00.088Z,14.77
2017-11-13T08:47:28.491Z,16.00
2017-11-13T08:49:56.199Z,16.93
2017-11-13T08:52:23.904Z,15.67
2017-11-13T08:54:51.531Z,14.80
2017-11-13T08:57:19.327Z,14.20
2017-11-13T08:59:47.447Z,14.00
2017-11-13T09:02:15.430Z,15.23
2017-11-13T09:04:43.027Z,15.20
2017-11-13T09:07:10.633Z,14.40
2017-11-13T09:09:38.244Z,16.20
2017-11-13T09:12:05.862Z,15.60
2017-11-13T09:14:33.510Z,17.17
2017-11-13T09:17:01.187Z,15.97
2017-11-13T09:19:28.796Z,12.60
2017-11-13T09:21:56.400Z,13.77
2017-11-13T09:24:24.029Z,12.87
2017-11-13T09:26:51.637Z,13.40
2017-11-13T09:29:19.244Z,11.33
2017-11-13T09:31:46.897Z,12.00
2017-11-13T09:34:14.444Z,10.10
2017-11-13T09:39:15.669Z,10.57
2017-11-13T09:41:45.478Z,10.50
2017-11-13T09:47:43.720Z,9.87
2017-11-13T09:50:11.514Z,9.90
2017-11-13T09:52:40.261Z,10.00
2017-11-13T09:55:13.804Z,12.73
2017-11-13T09:57:42.332Z,11.23
2017-11-13T10:00:17.815Z,10.93
2017-11-13T10:02:47.203Z,11.60
2017-11-13T10:05:16.779Z,13.80
2017-11-13T10:07:46.996Z,11.90
2017-11-13T10:10:15.360Z,11.53
2017-11-13T10:12:43.844Z,10.50
2017-11-13T10:15:11.417Z,11.60
2017-11-13T10:17:39.042Z,11.40
2017-11-13T10:20:06.665Z,11.63
2017-11-13T10:22:34.417Z,11.10
2017-11-13T10:25:02.252Z,10.83
2017-11-13T10:27:29.899Z,9.57
2017-11-13T10:29:57.727Z,11.03
2017-11-13T10:32:25.491Z,11.43
2017-11-13T10:34:53.024Z,11.00
2017-11-13T10:37:20.616Z,12.20
2017-11-13T10:39:48.234Z,10.77
2017-11-13T10:42:15.813Z,10.73
2017-11-13T10:44:44.734Z,12.10
2017-11-13T10:47:12.361Z,12.13
2017-11-13T10:49:40.884Z,12.83
2017-11-13T10:52:08.658Z,14.67
2017-11-13T10:54:37.385Z,13.17
2017-11-13T10:57:05.015Z,13.13
2017-11-13T10:59:32.612Z,13.80
2017-11-13T11:02:00.267Z,12.50
2017-11-13T11:04:30.090Z,12.47
2017-11-13T11:06:57.765Z,12.60
2017-11-13T11:09:25.973Z,12.43
2017-11-13T11:11:54.157Z,12.80
2017-11-13T11:14:35.478Z,11.40
2017-11-13T11:17:18.031Z,11.90
2017-11-13T11:19:49.667Z,11.43
2017-11-13T11:22:31.104Z,11.60
2017-11-13T11:24:58.760Z,10.00
2017-11-13T11:27:30.004Z,10.00
2017-11-13T11:30:00.080Z,7.47
2017-11-13T11:32:30.269Z,7.40
2017-11-13T11:35:03.405Z,7.33
2017-11-13T11:37:33.081Z,8.03
2017-11-13T11:40:00.876Z,8.77
2017-11-13T11:42:29.517Z,8.10
2017-11-13T11:44:57.666Z,9.50
2017-11-13T11:47:25.994Z,8.83
2017-11-13T11:49:53.607Z,9.37
2017-11-13T11:52:21.301Z,8.90
2017-11-13T11:54:50.817Z,9.53
2017-11-13T11:57:20.921Z,9.70
2017-11-13T11:59:49.446Z,9.07
2017-11-13T12:02:17.113Z,9.20
2017-11-13T12:04:44.757Z,8.13
2017-11-13T12:07:12.409Z,7.97
2017-11-13T12:09:40.027Z,8.20
2017-11-13T12:12:07.812Z,8.20
2017-11-13T12:14:35.428Z,7.90
2017-11-13T12:17:03.173Z,8.90
2017-11-13T12:19:30.730Z,9.43
2017-11-13T12:21:58.323Z,8.87
2017-11-13T12:24:25.914Z,8.30
2017-11-13T12:26:53.560Z,7.77
2017-11-13T12:29:21.359Z,8.93
2017-11-13T12:31:49.084Z,8.47
2017-11-13T12:34:16.671Z,8.30
2017-11-13T12:36:44.281Z,8.63
2017-11-13T12:39:12.049Z,8.20
2017-11-13T12:41:39.611Z,9.07
2017-11-13T12:44:07.237Z,7.50
2017-11-13T12:46:35.755Z,8.07
2017-11-13T12:49:03.524Z,8.90
2017-11-13T12:51:31.902Z,9.33
2017-11-13T12:53:59.582Z,8.40
2017-11-13T12:56:27.476Z,9.70
2017-11-13T12:58:55.280Z,9.00
2017-11-13T13:01:22.972Z,14.27
2017-11-13T13:03:50.557Z,11.50
2017-11-13T13:06:18.171Z,10.67
2017-11-13T13:08:45.860Z,9.93
2017-11-13T13:11:13.418Z,10.00
2017-11-13T13:13:41.039Z,10.97
2017-11-13T13:16:08.623Z,13.00
2017-11-13T13:18:36.197Z,11.60
2017-11-13T13:21:04.059Z,10.30
2017-11-13T13:23:31.653Z,12.27
2017-11-13T13:25:59.224Z,10.63
2017-11-13T13:28:27.010Z,12.30
2017-11-13T13:30:55.415Z,11.17
2017-11-13T13:33:23.015Z,11.53
2017-11-13T13:35:51.412Z,10.97
2017-11-13T13:38:19.098Z,11.43
2017-11-13T13:40:46.878Z,12.07
2017-11-13T13:43:14.906Z,12.40
2017-11-13T13:45:42.824Z,12.10
2017-11-13T13:48:10.424Z,13.00
2017-11-13T13:50:38.217Z,14.00
2017-11-13T13:53:05.902Z,11.87
2017-11-13T13:55:33.522Z,11.30
2017-11-13T13:58:01.160Z,11.80
2017-11-13T14:00:28.816Z,11.63
2017-11-13T14:02:56.638Z,9.70
2017-11-13T14:05:24.236Z,8.43
2017-11-13T14:07:51.847Z,8.90
2017-11-13T14:10:19.459Z,8.47
2017-11-13T14:12:47.107Z,8.00
2017-11-13T14:15:14.747Z,8.90
2017-11-13T14:17:42.338Z,10.20
2017-11-13T14:20:10.102Z,9.73
2017-11-13T14:22:37.919Z,10.50
2017-11-13T14:25:06.144Z,7.80
2017-11-13T14:27:33.743Z,10.10
2017-11-13T14:30:01.383Z,8.63
2017-11-13T14:32:28.982Z,8.00
2017-11-13T14:34:56.530Z,8.33
2017-11-13T14:37:24.127Z,9.10
2017-11-13T14:39:51.720Z,6.60
2017-11-13T14:42:19.271Z,6.90
2017-11-13T14:44:47.051Z,9.10
2017-11-13T14:47:14.733Z,8.47
2017-11-13T14:49:42.390Z,7.43
2017-11-13T14:52:10.227Z,9.17
2017-11-13T14:54:37.834Z,8.00
2017-11-13T14:57:05.434Z,10.00
2017-11-13T14:59:33.013Z,8.70
2017-11-13T15:02:00.609Z,7.60
2017-11-13T15:04:28.228Z,8.30
2017-11-13T15:06:55.805Z,19.77
2017-11-13T15:09:23.445Z,19.10
2017-11-13T15:11:50.991Z,21.87
2017-11-13T15:14:18.532Z,18.23
2017-11-13T15:16:46.147Z,12.03
2017-11-13T15:19:13.703Z,10.43
2017-11-13T15:21:41.523Z,10.63
2017-11-13T15:24:09.121Z,10.47
2017-11-13T15:26:36.925Z,8.40
2017-11-13T15:29:04.562Z,7.97
2017-11-13T15:31:32.273Z,11.47
2017-11-13T15:34:00.068Z,12.70
2017-11-13T15:36:27.838Z,24.30
2017-11-13T15:38:55.423Z,25.37
2017-11-13T15:41:23.020Z,28.97
2017-11-13T15:43:50.572Z,37.93
2017-11-13T15:46:18.211Z,42.33
2017-11-13T15:48:45.959Z,40.23
2017-11-13T15:51:13.780Z,29.40
2017-11-13T15:53:41.414Z,28.07
2017-11-13T15:56:08.952Z,21.77
2017-11-13T15:58:36.718Z,23.70
2017-11-13T16:01:04.342Z,20.13
2017-11-13T16:03:31.906Z,19.70
2017-11-13T16:05:59.522Z,18.73
2017-11-13T16:08:27.178Z,16.57
2017-11-13T16:10:54.943Z,16.93
2017-11-13T16:13:22.572Z,14.77
2017-11-13T16:15:50.198Z,14.77
2017-11-13T16:18:17.754Z,11.53
2017-11-13T16:20:45.596Z,13.73
2017-11-13T16:23:13.287Z,16.53
2017-11-13T16:25:41.083Z,20.63
2017-11-13T16:28:08.723Z,18.67
2017-11-13T16:30:36.332Z,17.80
2017-11-13T16:33:04.172Z,15.77
2017-11-13T16:35:31.754Z,18.57
2017-11-13T16:37:59.368Z,19.43
2017-11-13T16:40:26.989Z,29.87
2017-11-13T16:42:54.638Z,32.37
2017-11-13T16:45:22.367Z,35.23
2017-11-13T16:47:49.932Z,32.93
2017-11-13T16:50:17.558Z,36.90
2017-11-13T16:52:45.137Z,35.40
2017-11-13T16:55:12.912Z,31.10
2017-11-13T16:57:41.050Z,29.50
2017-11-13T17:00:08.904Z,27.33
2017-11-13T17:02:36.524Z,21.73
2017-11-13T17:05:04.788Z,22.30
2017-11-13T17:07:32.364Z,20.70
2017-11-13T17:09:59.939Z,19.93
2017-11-13T17:12:27.496Z,24.47
2017-11-13T17:14:55.184Z,18.63
2017-11-13T17:17:22.745Z,17.70
2017-11-13T17:19:51.179Z,21.83
2017-11-13T17:22:18.824Z,22.13
2017-11-13T17:24:46.344Z,22.23
2017-11-13T17:27:13.940Z,23.43
2017-11-13T17:29:42.293Z,24.10
2017-11-13T17:32:09.928Z,35.27
2017-11-13T17:34:37.492Z,33.07
2017-11-13T17:37:05.063Z,40.60
2017-11-13T17:39:32.654Z,43.60
2017-11-13T17:42:00.418Z,43.30
2017-11-13T17:44:28.017Z,48.33
2017-11-13T17:46:55.631Z,30.93
2017-11-13T17:49:23.212Z,37.30
2017-11-13T17:51:50.740Z,35.37
2017-11-13T17:54:18.764Z,47.70
2017-11-13T17:56:46.449Z,41.27
2017-11-13T17:59:14.011Z,28.33
2017-11-13T18:01:41.640Z,39.93
2017-11-13T18:04:09.224Z,42.53
2017-11-13T18:06:38.040Z,35.53
2017-11-13T18:09:05.796Z,38.50
2017-11-13T18:11:34.338Z,41.00
2017-11-13T18:14:01.886Z,46.87
2017-11-13T18:16:29.532Z,41.83
2017-11-13T18:18:58.046Z,40.03
2017-11-13T18:21:25.634Z,38.73
2017-11-13T18:23:53.469Z,39.90
2017-11-13T18:26:21.087Z,41.93
2017-11-13T18:28:48.624Z,42.67
2017-11-13T18:31:16.334Z,46.80
2017-11-13T18:33:43.910Z,48.47
2017-11-13T18:36:11.468Z,46.40
2017-11-13T18:38:39.060Z,44.40
2017-11-13T18:41:06.658Z,58.87
2017-11-13T18:43:34.329Z,38.40
2017-11-13T18:46:01.992Z,33.23
2017-11-13T18:48:29.566Z,32.73
2017-11-13T18:50:57.327Z,31.03
2017-11-13T18:53:25.321Z,31.30
2017-11-13T18:55:52.971Z,37.67
2017-11-13T18:58:20.525Z,36.27
2017-11-13T19:00:48.708Z,37.03
2017-11-13T19:03:18.043Z,34.17
2017-11-13T19:05:45.595Z,36.17
2017-11-13T19:08:13.209Z,38.90
2017-11-13T19:10:40.773Z,39.43
2017-11-13T19:13:08.372Z,40.20
2017-11-13T19:15:36.009Z,42.73
2017-11-13T19:18:03.641Z,44.40
2017-11-13T19:20:31.242Z,44.47
2017-11-13T19:22:58.879Z,50.17
2017-11-13T19:25:26.679Z,50.10
2017-11-13T19:27:54.270Z,52.07
2017-11-13T19:30:21.864Z,56.23
2017-11-13T19:32:49.508Z,56.07
2017-11-13T19:35:17.108Z,70.40
2017-11-13T19:37:44.808Z,82.30
2017-11-13T19:40:12.358Z,87.90
2017-11-13T19:42:40.151Z,89.77
2017-11-13T19:45:08.212Z,83.77
2017-11-13T19:47:36.834Z,73.70
2017-11-13T19:50:04.734Z,79.67
2017-11-13T19:52:32.312Z,72.50
2017-11-13T19:54:59.922Z,73.27
2017-11-13T19:57:27.474Z,79.07
2017-11-13T19:59:55.092Z,78.70
2017-11-13T20:02:22.773Z,73.77
2017-11-13T20:04:50.369Z,77.30
2017-11-13T20:07:18.918Z,81.10
2017-11-13T20:09:46.536Z,82.80
2017-11-13T20:12:14.182Z,81.77
2017-11-13T20:14:41.767Z,85.63
2017-11-13T20:17:09.501Z,86.73
2017-11-13T20:19:37.053Z,91.53
2017-11-13T20:22:04.630Z,82.50
2017-11-13T20:24:32.257Z,64.90
2017-11-13T20:26:59.849Z,75.77
2017-11-13T20:29:27.465Z,73.60
2017-11-13T20:31:55.075Z,85.80
2017-11-13T20:34:22.686Z,92.07
2017-11-13T20:36:50.320Z,99.37
2017-11-13T20:39:17.919Z,99.53
2017-11-13T20:41:45.515Z,103.07
2017-11-13T20:44:13.157Z,100.50
2017-11-13T20:46:40.845Z,108.97
2017-11-13T20:49:08.492Z,109.03
2017-11-13T20:51:37.344Z,120.63
2017-11-13T20:54:05.474Z,123.03
2017-11-13T20:56:33.291Z,116.60
2017-11-13T20:59:00.899Z,110.30
2017-11-13T21:01:29.349Z,97.30
2017-11-13T21:03:57.184Z,100.83
2017-11-13T21:06:24.756Z,92.83
2017-11-13T21:08:52.369Z,80.77
2017-11-13T21:11:20.177Z,78.80
2017-11-13T21:13:47.759Z,69.23
2017-11-13T21:16:15.367Z,67.43
2017-11-13T21:18:43.774Z,59.40
2017-11-13T21:21:11.316Z,55.77
2017-11-13T21:23:38.930Z,59.10
2017-11-13T21:26:07.340Z,62.57
2017-11-13T21:28:34.986Z,66.67
2017-11-13T21:31:03.459Z,73.03
2017-11-13T21:33:31.046Z,79.73
2017-11-13T21:35:58.639Z,73.63
2017-11-13T21:38:26.292Z,62.77
2017-11-13T21:40:54.149Z,65.80
2017-11-13T21:43:21.980Z,63.93
2017-11-13T21:45:49.767Z,52.50
2017-11-13T21:48:17.408Z,45.53
2017-11-13T21:50:45.020Z,48.73
2017-11-13T21:53:12.615Z,53.50
2017-11-13T21:55:40.286Z,51.17
2017-11-13T21:58:07.879Z,49.57
2017-11-13T22:00:35.463Z,48.13
2017-11-13T22:03:03.017Z,48.13
2017-11-13T22:05:30.781Z,45.23
2017-11-13T22:07:58.680Z,47.60
2017-11-13T22:10:27.391Z,43.70
2017-11-13T22:12:54.933Z,46.13
2017-11-13T22:15:22.511Z,46.67
2017-11-13T22:17:50.061Z,44.23
2017-11-13T22:20:23.162Z,45.77
2017-11-13T22:22:50.756Z,47.77
2017-11-13T22:25:18.310Z,46.83
2017-11-13T22:27:45.860Z,49.30
2017-11-13T22:30:13.575Z,58.80
2017-11-13T22:32:41.100Z,62.50
2017-11-13T22:35:08.723Z,62.33
2017-11-13T22:37:36.299Z,62.10
2017-11-13T22:40:03.867Z,59.50
2017-11-13T22:42:31.446Z,65.43
2017-11-13T22:44:59.126Z,61.93
2017-11-13T22:47:26.699Z,56.20
2017-11-13T22:49:54.234Z,58.40
2017-11-13T22:52:21.841Z,53.90
2017-11-13T22:54:49.424Z,52.57
2017-11-13T22:57:17.023Z,53.97
2017-11-13T22:59:44.594Z,56.83
2017-11-13T23:02:12.276Z,54.87
2017-11-13T23:04:39.824Z,57.13
2017-11-13T23:07:07.626Z,55.27
2017-11-13T23:09:35.200Z,53.27
2017-11-13T23:12:02.734Z,57.20
2017-11-13T23:14:30.296Z,56.10
2017-11-13T23:16:57.944Z,54.13
2017-11-13T23:19:25.515Z,53.33
2017-11-13T23:21:53.047Z,52.90
2017-11-13T23:24:20.619Z,51.23
2017-11-13T23:26:48.142Z,51.50
2017-11-13T23:29:15.660Z,50.03
2017-11-13T23:31:43.253Z,46.93
2017-11-13T23:34:10.771Z,48.37
2017-11-13T23:36:39.240Z,44.87
2017-11-13T23:39:07.475Z,41.40
2017-11-13T23:41:35.029Z,42.37
2017-11-13T23:44:02.554Z,40.97
2017-11-13T23:46:30.259Z,38.10
2017-11-13T23:48:57.802Z,30.87
2017-11-13T23:51:25.356Z,36.90
2017-11-13T23:53:53.009Z,35.20
2017-11-13T23:56:20.593Z,30.77
2017-11-13T23:58:48.217Z,31.80
